createdAt,value
2017-10-13T00:00:53.415Z,0
2017-10-13T00:01:52.601Z,0
2017-10-13T00:02:52.956Z,0
2017-10-13T00:03:53.216Z,0
2017-10-13T00:04:52.766Z,0
2017-10-13T00:05:53.179Z,0
2017-10-13T00:06:52.732Z,0
2017-10-13T00:07:53.137Z,0
2017-10-13T00:08:53.425Z,0
2017-10-13T00:09:52.802Z,0
2017-10-13T00:10:53.750Z,0
2017-10-13T00:11:53.072Z,0
2017-10-13T00:12:52.759Z,0
2017-10-13T00:13:53.367Z,0
2017-10-13T00:14:52.850Z,0
2017-10-13T00:15:53.119Z,0
2017-10-13T00:16:53.466Z,0
2017-10-13T00:17:52.920Z,0
2017-10-13T00:18:53.105Z,0
2017-10-13T00:19:52.287Z,0
2017-10-13T00:20:52.640Z,0
2017-10-13T00:21:53.482Z,0
2017-10-13T00:22:52.616Z,0
2017-10-13T00:23:52.815Z,0
2017-10-13T00:24:52.707Z,0
2017-10-13T00:25:53.037Z,0
2017-10-13T00:26:53.105Z,0
2017-10-13T00:27:53.573Z,0
2017-10-13T00:28:52.538Z,0
2017-10-13T00:29:52.736Z,0
2017-10-13T00:30:53.233Z,0
2017-10-13T00:31:52.639Z,0
2017-10-13T00:32:53.109Z,0
2017-10-13T00:33:52.948Z,0
2017-10-13T00:34:54.253Z,0
2017-10-13T00:35:52.565Z,0
2017-10-13T00:36:53.020Z,0
2017-10-13T00:37:52.335Z,0
2017-10-13T00:38:53.057Z,0
2017-10-13T00:39:53.256Z,0
2017-10-13T00:40:52.550Z,0
2017-10-13T00:41:53.309Z,0
2017-10-13T00:42:52.628Z,0
2017-10-13T00:43:53.086Z,0
2017-10-13T00:44:52.610Z,0
2017-10-13T00:45:52.723Z,0
2017-10-13T00:46:52.822Z,0
2017-10-13T00:47:53.060Z,0
2017-10-13T00:48:54.979Z,0
2017-10-13T00:49:52.440Z,0
2017-10-13T00:50:52.602Z,0
2017-10-13T00:51:52.768Z,0
2017-10-13T00:52:53.192Z,0
2017-10-13T00:53:52.687Z,0
2017-10-13T00:54:52.643Z,0
2017-10-13T00:55:53.844Z,0
2017-10-13T00:56:52.969Z,0
2017-10-13T00:57:53.289Z,0
2017-10-13T00:58:52.677Z,0
2017-10-13T00:59:53.472Z,0
2017-10-13T01:00:52.770Z,0
2017-10-13T01:01:53.209Z,0
2017-10-13T01:02:52.409Z,0
2017-10-13T01:03:52.809Z,0
2017-10-13T01:04:53.095Z,0
2017-10-13T01:05:52.407Z,0
2017-10-13T01:06:52.706Z,0
2017-10-13T01:07:53.196Z,0
2017-10-13T01:08:52.490Z,0
2017-10-13T01:09:53.825Z,0
2017-10-13T01:10:53.169Z,0
2017-10-13T01:11:53.327Z,0
2017-10-13T01:12:52.720Z,0
2017-10-13T01:13:53.115Z,0
2017-10-13T01:14:53.426Z,0
2017-10-13T01:15:52.726Z,0
2017-10-13T01:16:52.908Z,0
2017-10-13T01:17:53.114Z,0
2017-10-13T01:18:53.371Z,0
2017-10-13T01:19:52.633Z,0
2017-10-13T01:20:53.190Z,0
2017-10-13T01:21:53.145Z,0
2017-10-13T01:22:52.430Z,0
2017-10-13T01:23:52.492Z,0
2017-10-13T01:24:52.650Z,0
2017-10-13T01:25:52.887Z,0
2017-10-13T01:26:52.919Z,0
2017-10-13T01:27:52.878Z,0
2017-10-13T01:28:53.181Z,0
2017-10-13T01:29:52.637Z,0
2017-10-13T01:30:53.031Z,0
2017-10-13T01:31:53.563Z,0
2017-10-13T01:32:52.659Z,0
2017-10-13T01:33:53.001Z,0
2017-10-13T01:34:52.708Z,0
2017-10-13T01:35:53.082Z,0
2017-10-13T01:36:52.282Z,0
2017-10-13T01:37:52.383Z,0
2017-10-13T01:38:52.931Z,0
2017-10-13T01:39:53.070Z,0
2017-10-13T01:40:53.283Z,0
2017-10-13T01:41:52.560Z,0
2017-10-13T01:42:53.123Z,0
2017-10-13T01:43:52.308Z,0
2017-10-13T01:44:52.501Z,0
2017-10-13T01:45:52.790Z,0
2017-10-13T01:46:52.972Z,0
2017-10-13T01:47:53.290Z,0
2017-10-13T01:48:52.632Z,0
2017-10-13T01:49:52.886Z,0
2017-10-13T01:50:53.113Z,0
2017-10-13T01:51:52.543Z,0
2017-10-13T01:52:52.923Z,0
2017-10-13T01:53:53.548Z,0
2017-10-13T01:54:52.605Z,0
2017-10-13T01:55:52.841Z,0
2017-10-13T01:56:53.139Z,0
2017-10-13T01:57:52.783Z,0
2017-10-13T01:58:52.713Z,0
2017-10-13T01:59:52.655Z,0
2017-10-13T02:00:52.970Z,0
2017-10-13T02:01:52.715Z,0
2017-10-13T02:02:53.078Z,0
2017-10-13T02:03:52.593Z,0
2017-10-13T02:04:53.319Z,0
2017-10-13T02:05:52.702Z,0
2017-10-13T02:06:53.180Z,0
2017-10-13T02:07:52.889Z,0
2017-10-13T02:08:52.791Z,0
2017-10-13T02:09:52.577Z,0
2017-10-13T02:10:53.023Z,0
2017-10-13T02:11:52.304Z,0
2017-10-13T02:12:52.561Z,0
2017-10-13T02:13:52.708Z,0
2017-10-13T02:14:52.931Z,0
2017-10-13T02:15:53.276Z,0
2017-10-13T02:16:52.403Z,0
2017-10-13T02:17:52.775Z,0
2017-10-13T02:18:53.118Z,0
2017-10-13T02:19:52.594Z,0
2017-10-13T02:20:52.933Z,0
2017-10-13T02:21:53.548Z,0
2017-10-13T02:22:52.503Z,0
2017-10-13T02:23:52.539Z,0
2017-10-13T02:24:52.806Z,0
2017-10-13T02:25:53.024Z,0
2017-10-13T02:26:53.637Z,0
2017-10-13T02:27:52.959Z,0
2017-10-13T02:28:53.116Z,0
2017-10-13T02:29:53.351Z,0
2017-10-13T02:30:52.450Z,0
2017-10-13T02:31:52.629Z,0
2017-10-13T02:32:52.249Z,0
2017-10-13T02:33:52.726Z,0
2017-10-13T02:34:52.968Z,0
2017-10-13T02:35:53.432Z,0
2017-10-13T02:36:52.507Z,0
2017-10-13T02:37:53.398Z,0
2017-10-13T02:38:52.428Z,0
2017-10-13T02:39:52.526Z,0
2017-10-13T02:40:52.751Z,0
2017-10-13T02:41:52.918Z,0
2017-10-13T02:42:53.369Z,0
2017-10-13T02:43:53.092Z,0
2017-10-13T02:44:52.353Z,0
2017-10-13T02:45:52.495Z,0
2017-10-13T02:46:52.713Z,0
2017-10-13T02:47:52.934Z,0
2017-10-13T02:48:53.357Z,0
2017-10-13T02:49:52.783Z,0
2017-10-13T02:50:52.706Z,0
2017-10-13T02:51:52.900Z,0
2017-10-13T02:52:52.983Z,0
2017-10-13T02:53:53.601Z,0
2017-10-13T02:54:52.815Z,0
2017-10-13T02:55:53.204Z,0
2017-10-13T02:56:52.506Z,0
2017-10-13T02:57:52.859Z,0
2017-10-13T02:58:53.711Z,0
2017-10-13T02:59:53.024Z,0
2017-10-13T03:00:53.344Z,0
2017-10-13T03:01:52.520Z,0
2017-10-13T03:02:52.616Z,0
2017-10-13T03:03:52.938Z,0
2017-10-13T03:04:53.431Z,0
2017-10-13T03:05:52.471Z,0
2017-10-13T03:06:52.591Z,0
2017-10-13T03:07:52.956Z,0
2017-10-13T03:08:52.948Z,0
2017-10-13T03:09:53.262Z,0
2017-10-13T03:10:52.788Z,0
2017-10-13T03:11:53.128Z,0
2017-10-13T03:12:52.657Z,0
2017-10-13T03:13:52.621Z,0
2017-10-13T03:14:52.779Z,0
2017-10-13T03:15:52.808Z,0
2017-10-13T03:16:52.905Z,0
2017-10-13T03:17:53.197Z,0
2017-10-13T03:18:53.457Z,0
2017-10-13T03:19:52.430Z,0
2017-10-13T03:20:52.863Z,0
2017-10-13T03:21:53.101Z,0
2017-10-13T03:22:53.108Z,0
2017-10-13T03:23:53.157Z,0
2017-10-13T03:24:52.460Z,0
2017-10-13T03:25:52.691Z,0
2017-10-13T03:26:53.250Z,0
2017-10-13T03:27:52.735Z,0
2017-10-13T03:28:52.809Z,0
2017-10-13T03:29:53.276Z,0
2017-10-13T03:30:52.489Z,0
2017-10-13T03:31:52.692Z,0
2017-10-13T03:32:54.408Z,0
2017-10-13T03:33:52.537Z,0
2017-10-13T03:34:52.778Z,0
2017-10-13T03:35:53.083Z,0
2017-10-13T03:36:52.635Z,0
2017-10-13T03:37:52.921Z,0
2017-10-13T03:38:53.587Z,0
2017-10-13T03:39:53.485Z,0
2017-10-13T03:40:52.618Z,0
2017-10-13T03:41:52.895Z,0
2017-10-13T03:42:53.120Z,0
2017-10-13T03:43:53.341Z,0
2017-10-13T03:44:52.622Z,0
2017-10-13T03:45:52.934Z,0
2017-10-13T03:46:52.975Z,0
2017-10-13T03:47:53.335Z,0
2017-10-13T03:48:52.330Z,0
2017-10-13T03:49:52.857Z,0
2017-10-13T03:50:53.077Z,0
2017-10-13T03:51:52.502Z,0
2017-10-13T03:52:53.306Z,0
2017-10-13T03:53:52.401Z,0
2017-10-13T03:54:52.547Z,0
2017-10-13T03:55:53.369Z,0
2017-10-13T03:56:52.765Z,0
2017-10-13T03:57:53.060Z,0
2017-10-13T03:58:52.440Z,0
2017-10-13T03:59:52.729Z,0
2017-10-13T04:00:52.941Z,0
2017-10-13T04:01:53.400Z,0
2017-10-13T04:02:52.725Z,0
2017-10-13T04:03:52.940Z,0
2017-10-13T04:04:53.281Z,0
2017-10-13T04:05:52.401Z,0
2017-10-13T04:06:52.529Z,0
2017-10-13T04:07:52.956Z,0
2017-10-13T04:08:52.989Z,0
2017-10-13T04:09:53.260Z,0
2017-10-13T04:10:53.105Z,0
2017-10-13T04:11:53.439Z,0
2017-10-13T04:12:52.865Z,0
2017-10-13T04:13:53.028Z,0
2017-10-13T04:14:52.600Z,0
2017-10-13T04:15:52.687Z,0
2017-10-13T04:16:53.122Z,0
2017-10-13T04:17:53.547Z,0
2017-10-13T04:18:52.612Z,0
2017-10-13T04:19:52.967Z,0
2017-10-13T04:20:53.113Z,0
2017-10-13T04:21:53.520Z,0
2017-10-13T04:22:52.728Z,0
2017-10-13T04:23:53.189Z,0
2017-10-13T04:24:52.620Z,0
2017-10-13T04:25:52.726Z,0
2017-10-13T04:26:52.807Z,0
2017-10-13T04:27:53.227Z,0
2017-10-13T04:28:53.314Z,0
2017-10-13T04:29:52.793Z,0
2017-10-13T04:30:52.980Z,0
2017-10-13T04:31:52.587Z,0
2017-10-13T04:32:52.806Z,0
2017-10-13T04:33:53.436Z,0
2017-10-13T04:34:52.489Z,0
2017-10-13T04:35:53.058Z,0
2017-10-13T04:36:52.770Z,0
2017-10-13T04:37:52.952Z,0
2017-10-13T04:38:52.773Z,0
2017-10-13T04:39:53.611Z,0
2017-10-13T04:40:52.760Z,0
2017-10-13T04:41:52.984Z,0
2017-10-13T04:43:28.688Z,0
2017-10-13T04:44:28.708Z,0
2017-10-13T04:45:29.096Z,0
2017-10-13T04:46:29.372Z,0
2017-10-13T04:47:28.918Z,0
2017-10-13T04:48:29.345Z,0
2017-10-13T04:49:29.307Z,0
2017-10-13T04:50:29.948Z,0
2017-10-13T04:51:29.318Z,0
2017-10-13T04:52:29.524Z,0
2017-10-13T04:53:28.549Z,0
2017-10-13T04:54:28.787Z,0
2017-10-13T04:55:29.018Z,0
2017-10-13T04:56:29.594Z,0
2017-10-13T04:57:28.911Z,0
2017-10-13T04:58:29.208Z,0
2017-10-13T04:59:29.493Z,0
2017-10-13T05:00:28.826Z,0
2017-10-13T05:01:28.936Z,0
2017-10-13T05:02:29.380Z,0
2017-10-13T05:03:28.729Z,0
2017-10-13T05:04:28.941Z,0
2017-10-13T05:05:29.064Z,0
2017-10-13T05:06:29.896Z,0
2017-10-13T05:07:28.750Z,0
2017-10-13T05:08:29.270Z,0
2017-10-13T05:09:28.167Z,0
2017-10-13T05:10:28.216Z,0
2017-10-13T05:11:28.229Z,0
2017-10-13T05:12:27.692Z,0
2017-10-13T05:13:27.824Z,0
2017-10-13T05:14:27.880Z,0
2017-10-13T05:15:28.217Z,0
2017-10-13T05:16:28.278Z,0
2017-10-13T05:17:28.083Z,0
2017-10-13T05:18:28.359Z,0
2017-10-13T05:19:27.851Z,0
2017-10-13T05:20:28.207Z,0
2017-10-13T05:21:27.696Z,0
2017-10-13T05:22:28.042Z,0
2017-10-13T05:23:28.799Z,0
2017-10-13T05:24:28.063Z,0
2017-10-13T05:25:28.477Z,0
2017-10-13T05:26:28.023Z,0
2017-10-13T05:27:28.306Z,0
2017-10-13T05:28:28.581Z,0
2017-10-13T05:29:27.849Z,0
2017-10-13T05:30:27.786Z,0
2017-10-13T05:31:27.729Z,0
2017-10-13T05:32:27.934Z,0
2017-10-13T05:33:28.255Z,0
2017-10-13T05:34:29.596Z,0
2017-10-13T05:35:27.415Z,0
2017-10-13T05:36:27.354Z,0
2017-10-13T05:37:27.580Z,0
2017-10-13T05:38:28.646Z,0
2017-10-13T05:39:28.430Z,0
2017-10-13T05:40:27.841Z,0
2017-10-13T05:41:27.986Z,0
2017-10-13T05:42:27.971Z,1
2017-10-13T05:43:28.592Z,1
2017-10-13T05:44:28.028Z,1
2017-10-13T05:45:28.229Z,1
2017-10-13T05:46:28.508Z,1
2017-10-13T05:47:28.311Z,1
2017-10-13T05:48:27.815Z,1
2017-10-13T05:49:28.539Z,2
2017-10-13T05:50:27.928Z,2
2017-10-13T05:51:27.978Z,2
2017-10-13T05:52:28.330Z,2
2017-10-13T05:53:28.420Z,3
2017-10-13T05:54:27.612Z,3
2017-10-13T05:55:28.019Z,3
2017-10-13T05:56:27.991Z,4
2017-10-13T05:57:28.138Z,4
2017-10-13T05:58:28.521Z,5
2017-10-13T05:59:27.810Z,5
2017-10-13T06:00:27.930Z,5
2017-10-13T06:01:28.138Z,6
2017-10-13T06:02:27.801Z,6
2017-10-13T06:03:28.223Z,7
2017-10-13T06:04:28.633Z,7
2017-10-13T06:05:27.722Z,8
2017-10-13T06:06:28.465Z,8
2017-10-13T06:07:27.745Z,9
2017-10-13T06:08:28.138Z,9
2017-10-13T06:09:28.478Z,10
2017-10-13T06:10:28.782Z,10
2017-10-13T06:11:28.805Z,11
2017-10-13T06:12:28.266Z,11
2017-10-13T06:13:27.779Z,12
2017-10-13T06:14:28.251Z,13
2017-10-13T06:15:27.752Z,13
2017-10-13T06:16:27.957Z,14
2017-10-13T06:17:28.816Z,14
2017-10-13T06:18:28.331Z,15
2017-10-13T06:19:27.464Z,16
2017-10-13T06:20:29.244Z,16
2017-10-13T06:21:27.510Z,17
2017-10-13T06:22:29.018Z,17
2017-10-13T06:23:28.920Z,18
2017-10-13T06:24:28.248Z,18
2017-10-13T06:25:28.847Z,19
2017-10-13T06:26:28.499Z,19
2017-10-13T06:27:30.171Z,20
2017-10-13T06:28:29.109Z,22
2017-10-13T06:29:28.518Z,23
2017-10-13T06:30:28.121Z,24
2017-10-13T06:31:28.529Z,25
2017-10-13T06:32:27.915Z,26
2017-10-13T06:33:28.336Z,26
2017-10-13T06:34:28.950Z,26
2017-10-13T06:35:28.432Z,26
2017-10-13T06:36:27.804Z,27
2017-10-13T06:37:28.204Z,28
2017-10-13T06:38:28.115Z,29
2017-10-13T06:39:27.728Z,30
2017-10-13T06:40:28.378Z,31
2017-10-13T06:41:27.983Z,31
2017-10-13T06:42:29.147Z,31
2017-10-13T06:43:28.304Z,31
2017-10-13T06:44:28.782Z,30
2017-10-13T06:45:28.689Z,30
2017-10-13T06:46:28.475Z,29
2017-10-13T06:47:28.011Z,28
2017-10-13T06:48:28.545Z,27
2017-10-13T06:49:28.117Z,25
2017-10-13T06:50:28.891Z,25
2017-10-13T06:51:28.247Z,24
2017-10-13T06:52:27.466Z,24
2017-10-13T06:53:28.225Z,25
2017-10-13T06:54:28.907Z,23
2017-10-13T06:55:28.185Z,23
2017-10-13T06:56:29.075Z,23
2017-10-13T06:57:28.807Z,22
2017-10-13T06:58:28.376Z,22
2017-10-13T06:59:27.759Z,23
2017-10-13T07:00:28.377Z,23
2017-10-13T07:01:28.151Z,23
2017-10-13T07:02:28.977Z,23
2017-10-13T07:03:28.537Z,23
2017-10-13T07:04:28.031Z,24
2017-10-13T07:05:28.733Z,24
2017-10-13T07:06:28.382Z,26
2017-10-13T07:07:28.675Z,28
2017-10-13T07:08:28.386Z,29
2017-10-13T07:09:27.785Z,29
2017-10-13T07:10:28.368Z,30
2017-10-13T07:11:28.072Z,31
2017-10-13T07:12:28.838Z,34
2017-10-13T07:13:28.435Z,43
2017-10-13T07:14:27.870Z,58
2017-10-13T07:15:27.767Z,67
2017-10-13T07:16:27.999Z,59
2017-10-13T07:17:28.258Z,68
2017-10-13T07:18:28.330Z,86
2017-10-13T07:19:27.850Z,54
2017-10-13T07:20:28.319Z,71
2017-10-13T07:21:27.806Z,66
2017-10-13T07:22:29.196Z,63
2017-10-13T07:23:28.603Z,64
2017-10-13T07:24:27.960Z,65
2017-10-13T07:25:28.431Z,62
2017-10-13T07:26:27.974Z,86
2017-10-13T07:27:27.962Z,85
2017-10-13T07:28:28.841Z,66
2017-10-13T07:29:28.437Z,62
2017-10-13T07:30:27.970Z,66
2017-10-13T07:31:28.893Z,61
2017-10-13T07:32:28.663Z,60
2017-10-13T07:33:28.379Z,61
2017-10-13T07:34:27.740Z,66
2017-10-13T07:35:29.174Z,62
2017-10-13T07:36:27.918Z,65
2017-10-13T07:37:28.498Z,67
2017-10-13T07:38:28.642Z,62
2017-10-13T07:39:27.965Z,66
2017-10-13T07:40:27.961Z,66
2017-10-13T07:41:28.033Z,62
2017-10-13T07:42:28.757Z,63
2017-10-13T07:43:28.566Z,63
2017-10-13T07:44:28.692Z,57
2017-10-13T07:45:28.328Z,65
2017-10-13T07:46:28.971Z,67
2017-10-13T07:47:28.572Z,63
2017-10-13T07:48:28.090Z,72
2017-10-13T07:49:28.913Z,81
2017-10-13T07:50:28.331Z,75
2017-10-13T07:51:28.392Z,78
2017-10-13T07:52:27.907Z,86
2017-10-13T07:53:28.569Z,88
2017-10-13T07:54:28.280Z,85
2017-10-13T07:55:28.565Z,81
2017-10-13T07:56:28.105Z,83
2017-10-13T07:57:28.458Z,78
2017-10-13T07:58:28.734Z,77
2017-10-13T07:59:28.091Z,78
2017-10-13T08:00:29.139Z,71
2017-10-13T08:01:28.627Z,70
2017-10-13T08:02:28.197Z,67
2017-10-13T08:03:27.640Z,69
2017-10-13T08:04:28.210Z,71
2017-10-13T08:05:29.270Z,83
2017-10-13T08:06:28.707Z,78
2017-10-13T08:07:28.314Z,82
2017-10-13T08:08:28.904Z,88
2017-10-13T08:09:28.479Z,97
2017-10-13T08:10:28.032Z,95
2017-10-13T08:11:28.645Z,98
2017-10-13T08:12:28.385Z,101
2017-10-13T08:13:28.022Z,98
2017-10-13T08:14:28.425Z,97
2017-10-13T08:15:27.558Z,99
2017-10-13T08:16:27.957Z,97
2017-10-13T08:17:28.143Z,87
2017-10-13T08:18:29.177Z,84
2017-10-13T08:19:28.343Z,87
2017-10-13T08:20:28.701Z,91
2017-10-13T08:21:28.213Z,94
2017-10-13T08:22:28.652Z,92
2017-10-13T08:23:28.118Z,98
2017-10-13T08:24:28.731Z,92
2017-10-13T08:25:28.503Z,90
2017-10-13T08:26:28.248Z,103
2017-10-13T08:27:28.752Z,121
2017-10-13T08:28:28.561Z,128
2017-10-13T08:29:27.890Z,133
2017-10-13T08:30:28.398Z,136
2017-10-13T08:31:27.897Z,132
2017-10-13T08:32:28.000Z,130
2017-10-13T08:33:28.449Z,133
2017-10-13T08:34:27.977Z,137
2017-10-13T08:35:28.546Z,130
2017-10-13T08:36:28.061Z,122
2017-10-13T08:37:28.731Z,93
2017-10-13T08:38:28.404Z,101
2017-10-13T08:39:27.906Z,119
2017-10-13T08:40:28.399Z,117
2017-10-13T08:41:27.896Z,127
2017-10-13T08:42:28.164Z,131
2017-10-13T08:43:28.924Z,125
2017-10-13T08:44:28.218Z,143
2017-10-13T08:45:28.630Z,123
2017-10-13T08:46:28.535Z,105
2017-10-13T08:47:27.992Z,108
2017-10-13T08:48:28.857Z,108
2017-10-13T08:49:28.639Z,104
2017-10-13T08:50:28.435Z,106
2017-10-13T08:51:28.091Z,125
2017-10-13T08:52:28.562Z,117
2017-10-13T08:53:27.981Z,115
2017-10-13T08:54:28.695Z,131
2017-10-13T08:55:28.106Z,135
2017-10-13T08:56:28.769Z,203
2017-10-13T08:57:27.769Z,205
2017-10-13T08:58:27.789Z,207
2017-10-13T08:59:28.253Z,213
2017-10-13T09:00:27.524Z,195
2017-10-13T09:01:27.903Z,183
2017-10-13T09:02:28.531Z,173
2017-10-13T09:03:28.289Z,171
2017-10-13T09:04:28.991Z,176
2017-10-13T09:05:28.568Z,176
2017-10-13T09:06:28.416Z,177
2017-10-13T09:07:27.681Z,177
2017-10-13T09:08:27.876Z,172
2017-10-13T09:09:28.121Z,172
2017-10-13T09:10:28.342Z,172
2017-10-13T09:11:28.221Z,173
2017-10-13T09:12:28.618Z,175
2017-10-13T09:13:28.117Z,184
2017-10-13T09:14:28.534Z,184
2017-10-13T09:15:27.472Z,195
2017-10-13T09:16:27.787Z,204
2017-10-13T09:17:28.005Z,214
2017-10-13T09:18:28.777Z,236
2017-10-13T09:19:28.342Z,260
2017-10-13T09:20:27.875Z,264
2017-10-13T09:21:27.877Z,280
2017-10-13T09:22:28.507Z,304
2017-10-13T09:23:28.438Z,304
2017-10-13T09:24:27.633Z,297
2017-10-13T09:25:27.985Z,287
2017-10-13T09:26:28.523Z,307
2017-10-13T09:27:54.379Z,324
2017-10-13T09:28:55.043Z,324
2017-10-13T09:29:54.454Z,315
2017-10-13T09:30:54.708Z,314
2017-10-13T09:31:55.254Z,301
2017-10-13T09:32:54.512Z,304
2017-10-13T09:33:54.819Z,292
2017-10-13T09:34:55.541Z,293
2017-10-13T09:35:54.623Z,256
2017-10-13T09:36:55.618Z,317
2017-10-13T09:37:54.717Z,288
2017-10-13T09:38:55.083Z,218
2017-10-13T09:39:54.796Z,229
2017-10-13T09:40:55.427Z,249
2017-10-13T09:41:55.171Z,250
2017-10-13T09:42:54.478Z,347
2017-10-13T09:43:54.997Z,344
2017-10-13T09:44:55.222Z,336
2017-10-13T09:45:55.024Z,346
2017-10-13T09:46:55.281Z,331
2017-10-13T09:47:54.846Z,322
2017-10-13T09:48:55.202Z,345
2017-10-13T09:49:55.699Z,351
2017-10-13T09:50:55.006Z,356
2017-10-13T09:51:55.086Z,361
2017-10-13T09:52:54.357Z,368
2017-10-13T09:53:54.535Z,387
2017-10-13T09:54:55.386Z,371
2017-10-13T09:55:55.090Z,364
2017-10-13T09:56:55.653Z,335
2017-10-13T09:57:55.318Z,329
2017-10-13T09:58:55.002Z,342
2017-10-13T09:59:55.297Z,353
2017-10-13T10:00:54.853Z,362
2017-10-13T10:01:55.497Z,305
2017-10-13T10:02:55.069Z,304
2017-10-13T10:03:54.357Z,334
2017-10-13T10:04:54.702Z,297
2017-10-13T10:05:55.050Z,287
2017-10-13T10:06:55.046Z,398
2017-10-13T10:07:55.491Z,216
2017-10-13T10:08:55.166Z,240
2017-10-13T10:09:54.533Z,190
2017-10-13T10:10:55.283Z,227
2017-10-13T10:11:54.465Z,174
2017-10-13T10:12:55.160Z,252
2017-10-13T10:13:55.266Z,175
2017-10-13T10:14:54.828Z,149
2017-10-13T10:15:16.080Z,150
2017-10-13T10:16:16.451Z,171
2017-10-13T10:17:16.007Z,162
2017-10-13T10:18:16.574Z,358
2017-10-13T10:19:16.006Z,250
2017-10-13T10:20:16.253Z,385
2017-10-13T10:21:16.670Z,324
2017-10-13T10:22:16.279Z,331
2017-10-13T10:23:17.138Z,360
2017-10-13T10:24:16.618Z,196
2017-10-13T10:25:15.883Z,179
2017-10-13T10:26:16.734Z,226
2017-10-13T10:27:15.993Z,448
2017-10-13T10:28:16.192Z,391
2017-10-13T10:29:16.346Z,373
2017-10-13T10:30:15.889Z,167
2017-10-13T10:31:16.652Z,167
2017-10-13T10:32:15.657Z,200
2017-10-13T10:33:16.231Z,189
2017-10-13T10:34:16.417Z,151
2017-10-13T10:35:16.136Z,170
2017-10-13T10:36:16.745Z,268
2017-10-13T10:37:15.926Z,351
2017-10-13T10:38:16.065Z,162
2017-10-13T10:39:16.739Z,192
2017-10-13T10:40:16.217Z,192
2017-10-13T10:41:16.717Z,176
2017-10-13T10:42:15.776Z,172
2017-10-13T10:43:16.021Z,202
2017-10-13T10:44:16.846Z,172
2017-10-13T10:45:16.681Z,174
2017-10-13T10:46:16.269Z,188
2017-10-13T10:47:16.498Z,203
2017-10-13T10:48:15.851Z,286
2017-10-13T10:49:16.649Z,241
2017-10-13T10:50:17.271Z,186
2017-10-13T10:51:16.046Z,206
2017-10-13T10:52:16.209Z,193
2017-10-13T10:53:17.031Z,212
2017-10-13T10:54:16.636Z,269
2017-10-13T10:55:16.042Z,268
2017-10-13T10:56:16.434Z,278
2017-10-13T10:57:16.226Z,295
2017-10-13T10:58:15.907Z,214
2017-10-13T10:59:16.561Z,258
2017-10-13T11:00:16.174Z,224
2017-10-13T11:01:15.903Z,189
2017-10-13T11:02:16.240Z,189
2017-10-13T11:03:15.630Z,194
2017-10-13T11:04:18.062Z,190
2017-10-13T11:05:16.149Z,191
2017-10-13T11:06:16.927Z,145
2017-10-13T11:07:16.419Z,163
2017-10-13T11:08:15.886Z,132
2017-10-13T11:09:16.725Z,127
2017-10-13T11:10:16.428Z,129
2017-10-13T11:11:16.173Z,122
2017-10-13T11:12:16.506Z,127
2017-10-13T11:13:16.744Z,120
2017-10-13T11:14:16.591Z,134
2017-10-13T11:15:16.746Z,192
2017-10-13T11:16:16.273Z,129
2017-10-13T11:17:16.922Z,155
2017-10-13T11:18:16.719Z,152
2017-10-13T11:19:16.130Z,135
2017-10-13T11:20:16.886Z,226
2017-10-13T11:21:16.394Z,223
2017-10-13T11:22:16.975Z,195
2017-10-13T11:23:16.274Z,285
2017-10-13T11:24:15.671Z,327
2017-10-13T11:25:15.895Z,272
2017-10-13T11:26:16.268Z,302
2017-10-13T11:27:15.606Z,291
2017-10-13T11:28:16.000Z,332
2017-10-13T11:29:16.260Z,370
2017-10-13T11:30:16.955Z,402
2017-10-13T11:31:16.636Z,416
2017-10-13T11:32:16.134Z,431
2017-10-13T11:33:16.750Z,434
2017-10-13T11:34:16.792Z,436
2017-10-13T11:35:16.390Z,433
2017-10-13T11:36:15.948Z,436
2017-10-13T11:37:16.852Z,416
2017-10-13T11:38:16.138Z,421
2017-10-13T11:39:16.552Z,435
2017-10-13T11:40:15.711Z,422
2017-10-13T11:41:16.591Z,428
2017-10-13T11:42:16.365Z,414
2017-10-13T11:43:15.862Z,427
2017-10-13T11:44:16.629Z,409
2017-10-13T11:45:15.805Z,426
2017-10-13T11:46:16.629Z,416
2017-10-13T11:47:16.505Z,425
2017-10-13T11:48:16.408Z,430
2017-10-13T11:49:15.768Z,391
2017-10-13T11:50:16.061Z,391
2017-10-13T11:51:16.328Z,419
2017-10-13T11:52:16.335Z,437
2017-10-13T11:53:17.129Z,428
2017-10-13T11:54:16.755Z,439
2017-10-13T11:55:16.066Z,464
2017-10-13T11:55:43.599Z,450
2017-10-13T11:56:44.354Z,417
2017-10-13T11:57:43.955Z,423
2017-10-13T11:58:44.781Z,450
2017-10-13T11:59:44.318Z,448
2017-10-13T12:00:44.011Z,388
2017-10-13T12:01:44.685Z,405
2017-10-13T12:02:44.436Z,290
2017-10-13T12:03:44.648Z,315
2017-10-13T12:04:44.732Z,294
2017-10-13T12:05:44.252Z,296
2017-10-13T12:06:44.019Z,246
2017-10-13T12:07:43.207Z,218
2017-10-13T12:08:43.729Z,247
2017-10-13T12:09:44.793Z,300
2017-10-13T12:10:45.776Z,288
2017-10-13T12:11:45.329Z,356
2017-10-13T12:12:44.027Z,280
2017-10-13T12:13:44.008Z,335
2017-10-13T12:14:45.103Z,275
2017-10-13T12:15:43.575Z,427
2017-10-13T12:16:43.895Z,447
2017-10-13T12:17:43.286Z,424
2017-10-13T12:18:43.940Z,395
2017-10-13T12:19:44.586Z,347
2017-10-13T12:20:44.264Z,375
2017-10-13T12:21:43.957Z,416
2017-10-13T12:22:43.256Z,412
2017-10-13T12:23:43.703Z,408
2017-10-13T12:24:44.961Z,398
2017-10-13T12:25:44.327Z,409
2017-10-13T12:26:44.347Z,424
2017-10-13T12:27:44.025Z,441
2017-10-13T12:28:43.540Z,436
2017-10-13T12:29:44.109Z,441
2017-10-13T12:30:44.386Z,442
2017-10-13T12:31:44.025Z,434
2017-10-13T12:32:44.519Z,422
2017-10-13T12:33:44.423Z,416
2017-10-13T12:34:45.086Z,392
2017-10-13T12:35:43.744Z,396
2017-10-13T12:36:44.244Z,422
2017-10-13T12:37:45.159Z,381
2017-10-13T12:38:43.371Z,323
2017-10-13T12:39:44.153Z,353
2017-10-13T12:40:43.771Z,371
2017-10-13T12:41:44.336Z,385
2017-10-13T12:42:43.458Z,356
2017-10-13T12:43:43.821Z,353
2017-10-13T12:44:43.981Z,321
2017-10-13T12:45:44.080Z,332
2017-10-13T12:46:43.387Z,316
2017-10-13T12:47:44.124Z,296
2017-10-13T12:48:43.279Z,286
2017-10-13T12:49:43.980Z,294
2017-10-13T12:50:44.798Z,317
2017-10-13T12:51:44.392Z,329
2017-10-13T12:52:44.223Z,222
2017-10-13T12:53:44.623Z,220
2017-10-13T12:54:43.918Z,226
2017-10-13T12:55:44.605Z,177
2017-10-13T12:56:44.306Z,205
2017-10-13T12:57:43.830Z,255
2017-10-13T12:58:44.900Z,255
2017-10-13T12:59:44.129Z,289
2017-10-13T13:00:43.548Z,308
2017-10-13T13:01:44.610Z,311
2017-10-13T13:02:43.933Z,298
2017-10-13T13:03:43.799Z,322
2017-10-13T13:04:44.508Z,347
2017-10-13T13:05:44.333Z,334
2017-10-13T13:06:43.793Z,366
2017-10-13T13:07:44.483Z,368
2017-10-13T13:08:43.749Z,387
2017-10-13T13:09:45.084Z,370
2017-10-13T13:10:43.302Z,384
2017-10-13T13:11:43.824Z,390
2017-10-13T13:12:44.242Z,389
2017-10-13T13:13:43.461Z,386
2017-10-13T13:14:43.762Z,385
2017-10-13T13:15:44.692Z,379
2017-10-13T13:16:44.196Z,386
2017-10-13T13:17:43.883Z,339
2017-10-13T13:18:44.757Z,338
2017-10-13T13:19:43.572Z,363
2017-10-13T13:20:44.019Z,358
2017-10-13T13:21:44.230Z,368
2017-10-13T13:22:43.959Z,369
2017-10-13T13:23:44.525Z,359
2017-10-13T13:24:43.729Z,356
2017-10-13T13:25:44.430Z,348
2017-10-13T13:26:44.235Z,360
2017-10-13T13:27:43.702Z,350
2017-10-13T13:28:44.365Z,339
2017-10-13T13:29:43.467Z,333
2017-10-13T13:30:43.499Z,318
2017-10-13T13:31:44.659Z,333
2017-10-13T13:32:44.371Z,325
2017-10-13T13:33:43.653Z,308
2017-10-13T13:34:43.844Z,328
2017-10-13T13:35:44.585Z,321
2017-10-13T13:36:44.163Z,317
2017-10-13T13:37:44.010Z,315
2017-10-13T13:38:43.601Z,314
2017-10-13T13:39:43.874Z,301
2017-10-13T13:40:44.570Z,308
2017-10-13T13:41:44.305Z,305
2017-10-13T13:42:43.928Z,311
2017-10-13T13:43:44.472Z,297
2017-10-13T13:44:44.012Z,299
2017-10-13T13:45:43.587Z,282
2017-10-13T13:46:45.316Z,248
2017-10-13T13:47:43.928Z,200
2017-10-13T13:48:43.827Z,262
2017-10-13T13:49:44.150Z,274
2017-10-13T13:50:45.179Z,274
2017-10-13T13:51:44.603Z,266
2017-10-13T13:52:43.330Z,270
2017-10-13T13:53:45.264Z,259
2017-10-13T13:54:44.592Z,271
2017-10-13T13:55:43.454Z,271
2017-10-13T13:56:44.262Z,275
2017-10-13T13:57:44.047Z,267
2017-10-13T13:58:43.809Z,264
2017-10-13T13:59:44.190Z,257
2017-10-13T14:00:44.194Z,263
2017-10-13T14:01:43.977Z,261
2017-10-13T14:02:43.495Z,251
2017-10-13T14:03:43.881Z,241
2017-10-13T14:04:43.400Z,234
2017-10-13T14:05:44.468Z,240
2017-10-13T14:06:44.871Z,233
2017-10-13T14:07:44.490Z,205
2017-10-13T14:08:44.142Z,224
2017-10-13T14:09:43.435Z,232
2017-10-13T14:10:44.249Z,218
2017-10-13T14:11:44.036Z,194
2017-10-13T14:12:43.956Z,205
2017-10-13T14:13:43.648Z,197
2017-10-13T14:14:43.529Z,213
2017-10-13T14:15:43.952Z,206
2017-10-13T14:16:44.975Z,210